Laramie Regional Airport
KLAR : now visible

Airfield :











YOU CAN JOIN US ON...

 
LOGIN :

Register | Disclaimer

   EN    FR    IT 

 









Legend :    VFR   Marginal VFR   IFR   Intensive IFR   Very Intensive IFR
Visi :
Ceiling :
>= 8 km
>= 3000ft
5 to 8 km
1000 to 3000 ft
1500m to 5 km
500 to 1000 ft
800 to 1500m
200 to 500 ft
< 800m
< 200 ft
Symbols :   Thunderstorms  Fog  Heavy snow  Heavy precipitations  Wind > 20 kt






- Airport Elevation : 7284 ft
- IATA code : LAR


KLAR - Laramie Regional

CURRENT METAR :
  • 261353Z AUTO 27005KT 10SM OVC042 M02/M08 A3005 RMK AO2 SLP184 T10221083

EXPIRED METARs :
  • 261253Z AUTO 30011KT 10SM OVC039 M02/M08 A3005 RMK AO2 SLP179 T10171083
  • 261153Z AUTO 28009KT 10SM SCT036 M03/M08 A3005 RMK AO2 SLP180 T10281078 10000 21039 55002

TAF KLAR
Valid from the 26 at 12:00 until the 27 at 12:00 UTC


261120Z 2612/2712 27014KT P6SM BKN080
FM261600 28018G30KT P6SM BKN150
FM270000 24009KT P6SM BKN150



MET'MAP, your aeronautical weather chart ! - Copyright ORBIFLY December 2007 - Disclaimer

ORBIFLY MET'MAP TEAM :

Programming & Development : Alexandra Zaïnal
Concept & original design : Baudouin d'Aumeries
Assistance for programming : Marc-Olivier Méhu
Technical & hardware support : Manuel Goepfert

Contact : metmap@orbifly.com




SOURCES & CREDITS :

   NOAA       Earth
Advisory